Aviation Digital Data Service (ADDS)

Output produced by METARs form (0630 UTC 19 March 2019)
found at http://www.aviationweather.gov/metar/data/
 
METAR text: RJEB 190600Z 25012KT 9999 FEW040 BKN/// 11/00 Q1009
Conditions at: RJEB (MONBETSU AIRPORT, JP) observed 0600 UTC 19 March 2019
Temperature: 11.0°C (52°F)
Dewpoint: 0.0°C (32°F) [RH = 47%]
Pressure (altimeter): 29.79 inches Hg (1009.0 mb)
Winds: from the WSW (250 degrees) at 14 MPH (12 knots; 6.2 m/s)
Visibility: 6 or more miles (10+ km)
Ceiling: at least 12,000 feet AGL
Clouds: few clouds at 4000 feet AGL
Weather: no significant weather observed at this time

METAR text: RJEB 190500Z 24018KT 9999 FEW050 BKN/// 11/M00 Q1007
Conditions at: RJEB (MONBETSU AIRPORT, JP) observed 0500 UTC 19 March 2019
Temperature: 11.0°C (52°F)
Dewpoint: 0.0°C (32°F) [RH = 47%]
Pressure (altimeter): 29.73 inches Hg (1007.0 mb)
Winds: from the WSW (240 degrees) at 21 MPH (18 knots; 9.3 m/s)
Visibility: 6 or more miles (10+ km)
Ceiling: at least 12,000 feet AGL
Clouds: few clouds at 5000 feet AGL
Weather: no significant weather observed at this time

METAR text: RJEB 190400Z 25017KT 220V280 9999 FEW050 SCT/// 11/M01 Q1007
Conditions at: RJEB (MONBETSU AIRPORT, JP) observed 0400 UTC 19 March 2019
Temperature: 11.0°C (52°F)
Dewpoint: -1.0°C (30°F) [RH = 43%]
Pressure (altimeter): 29.73 inches Hg (1007.0 mb)
Winds: from the WSW (250 degrees) at 20 MPH (17 knots; 8.7 m/s)
Visibility: 6 or more miles (10+ km)
Ceiling: at least 12,000 feet AGL
Clouds: few clouds at 5000 feet AGL
Weather: no significant weather observed at this time

METAR text: RJEB 190300Z 25019KT 210V280 9999 FEW050 11/M01 Q1007
Conditions at: RJEB (MONBETSU AIRPORT, JP) observed 0300 UTC 19 March 2019
Temperature: 11.0°C (52°F)
Dewpoint: -1.0°C (30°F) [RH = 43%]
Pressure (altimeter): 29.73 inches Hg (1007.0 mb)
Winds: from the WSW (250 degrees) at 22 MPH (19 knots; 9.8 m/s)
Visibility: 6 or more miles (10+ km)
Ceiling: at least 12,000 feet AGL
Clouds: few clouds at 5000 feet AGL
Weather: no significant weather observed at this time

METAR text: RJEB 190200Z 24019KT 9999 FEW050 10/M02 Q1008
Conditions at: RJEB (MONBETSU AIRPORT, JP) observed 0200 UTC 19 March 2019
Temperature: 10.0°C (50°F)
Dewpoint: -2.0°C (28°F) [RH = 43%]
Pressure (altimeter): 29.76 inches Hg (1008.0 mb)
Winds: from the WSW (240 degrees) at 22 MPH (19 knots; 9.8 m/s)
Visibility: 6 or more miles (10+ km)
Ceiling: at least 12,000 feet AGL
Clouds: few clouds at 5000 feet AGL
Weather: no significant weather observed at this time

METAR text: RJEB 190100Z 24017G27KT 9999 FEW050 10/M02 Q1008
Conditions at: RJEB (MONBETSU AIRPORT, JP) observed 0100 UTC 19 March 2019
Temperature: 10.0°C (50°F)
Dewpoint: -2.0°C (28°F) [RH = 43%]
Pressure (altimeter): 29.76 inches Hg (1008.0 mb)
Winds: from the WSW (240 degrees) at 20 MPH (17 knots; 8.7 m/s)
gusting to 31 MPH (27 knots; 13.9 m/s)
Visibility: 6 or more miles (10+ km)
Ceiling: at least 12,000 feet AGL
Clouds: few clouds at 5000 feet AGL
Weather: no significant weather observed at this time

METAR text: RJEB 190000Z 25019KT 9999 FEW060 09/M01 Q1006
Conditions at: RJEB (MONBETSU AIRPORT, JP) observed 0000 UTC 19 March 2019
Temperature: 9.0°C (48°F)
Dewpoint: -1.0°C (30°F) [RH = 49%]
Pressure (altimeter): 29.70 inches Hg (1006.0 mb)
Winds: from the WSW (250 degrees) at 22 MPH (19 knots; 9.8 m/s)
Visibility: 6 or more miles (10+ km)
Ceiling: at least 12,000 feet AGL
Clouds: few clouds at 6000 feet AGL
Weather: no significant weather observed at this time

METAR text: RJEB 180700Z 23011KT 200V270 9999 FEW050 SCT/// 07/M07 Q1012
Conditions at: RJEB (MONBETSU AIRPORT, JP) observed 0700 UTC 18 March 2019
Temperature: 7.0°C (45°F)
Dewpoint: -7.0°C (19°F) [RH = 36%]
Pressure (altimeter): 29.88 inches Hg (1012.0 mb)
Winds: from the SW (230 degrees) at 13 MPH (11 knots; 5.7 m/s)
Visibility: 6 or more miles (10+ km)
Ceiling: at least 12,000 feet AGL
Clouds: few clouds at 5000 feet AGL
Weather: no significant weather observed at this time

METAR text: RJEB 180600Z 24013KT 220V280 9999 FEW050 08/M07 Q1012
Conditions at: RJEB (MONBETSU AIRPORT, JP) observed 0600 UTC 18 March 2019
Temperature: 8.0°C (46°F)
Dewpoint: -7.0°C (19°F) [RH = 34%]
Pressure (altimeter): 29.88 inches Hg (1012.0 mb)
Winds: from the WSW (240 degrees) at 15 MPH (13 knots; 6.7 m/s)
Visibility: 6 or more miles (10+ km)
Ceiling: at least 12,000 feet AGL
Clouds: few clouds at 5000 feet AGL
Weather: no significant weather observed at this time

METAR text: RJEB 180500Z 25011KT 200V270 9999 FEW050 08/M08 Q1012
Conditions at: RJEB (MONBETSU AIRPORT, JP) observed 0500 UTC 18 March 2019
Temperature: 8.0°C (46°F)
Dewpoint: -8.0°C (18°F) [RH = 31%]
Pressure (altimeter): 29.88 inches Hg (1012.0 mb)
Winds: from the WSW (250 degrees) at 13 MPH (11 knots; 5.7 m/s)
Visibility: 6 or more miles (10+ km)
Ceiling: at least 12,000 feet AGL
Clouds: few clouds at 5000 feet AGL
Weather: no significant weather observed at this time

METAR text: RJEB 180400Z 24012KT 9999 FEW050 08/M08 Q1012
Conditions at: RJEB (MONBETSU AIRPORT, JP) observed 0400 UTC 18 March 2019
Temperature: 8.0°C (46°F)
Dewpoint: -8.0°C (18°F) [RH = 31%]
Pressure (altimeter): 29.88 inches Hg (1012.0 mb)
Winds: from the WSW (240 degrees) at 14 MPH (12 knots; 6.2 m/s)
Visibility: 6 or more miles (10+ km)
Ceiling: at least 12,000 feet AGL
Clouds: few clouds at 5000 feet AGL
Weather: no significant weather observed at this time

METAR text: RJEB 180300Z 24010KT 210V270 9999 FEW050 07/M07 Q1013
Conditions at: RJEB (MONBETSU AIRPORT, JP) observed 0300 UTC 18 March 2019
Temperature: 7.0°C (45°F)
Dewpoint: -7.0°C (19°F) [RH = 36%]
Pressure (altimeter): 29.91 inches Hg (1013.0 mb)
Winds: from the WSW (240 degrees) at 12 MPH (10 knots; 5.1 m/s)
Visibility: 6 or more miles (10+ km)
Ceiling: at least 12,000 feet AGL
Clouds: few clouds at 5000 feet AGL
Weather: no significant weather observed at this time

METAR text: RJEB 180200Z 25017KT 9999 FEW050 06/M07 Q1013
Conditions at: RJEB (MONBETSU AIRPORT, JP) observed 0200 UTC 18 March 2019
Temperature: 6.0°C (43°F)
Dewpoint: -7.0°C (19°F) [RH = 39%]
Pressure (altimeter): 29.91 inches Hg (1013.0 mb)
Winds: from the WSW (250 degrees) at 20 MPH (17 knots; 8.7 m/s)
Visibility: 6 or more miles (10+ km)
Ceiling: at least 12,000 feet AGL
Clouds: few clouds at 5000 feet AGL
Weather: no significant weather observed at this time

METAR text: RJEB 180100Z 24016KT 9999 FEW050 05/M07 Q1013
Conditions at: RJEB (MONBETSU AIRPORT, JP) observed 0100 UTC 18 March 2019
Temperature: 5.0°C (41°F)
Dewpoint: -7.0°C (19°F) [RH = 41%]
Pressure (altimeter): 29.91 inches Hg (1013.0 mb)
Winds: from the WSW (240 degrees) at 18 MPH (16 knots; 8.2 m/s)
Visibility: 6 or more miles (10+ km)
Ceiling: at least 12,000 feet AGL
Clouds: few clouds at 5000 feet AGL
Weather: no significant weather observed at this time

METAR text: RJEB 180000Z 24017G28KT 9999 FEW050 04/M07 Q1014
Conditions at: RJEB (MONBETSU AIRPORT, JP) observed 0000 UTC 18 March 2019
Temperature: 4.0°C (39°F)
Dewpoint: -7.0°C (19°F) [RH = 44%]
Pressure (altimeter): 29.94 inches Hg (1014.0 mb)
Winds: from the WSW (240 degrees) at 20 MPH (17 knots; 8.7 m/s)
gusting to 32 MPH (28 knots; 14.4 m/s)
Visibility: 6 or more miles (10+ km)
Ceiling: at least 12,000 feet AGL
Clouds: few clouds at 5000 feet AGL
Weather: no significant weather observed at this time